createdAt,value
2023-04-22T00:00:57.562Z,76.1092
2023-04-22T00:01:58.814Z,75.9738
2023-04-22T00:03:00.234Z,75.7700
2023-04-22T00:04:01.786Z,75.5379
2023-04-22T00:05:03.495Z,75.3823
2023-04-22T00:06:04.874Z,75.3305
2023-04-22T00:07:06.102Z,75.3612
2023-04-22T00:08:07.370Z,75.4405
2023-04-22T00:09:08.631Z,75.5117
2023-04-22T00:10:09.880Z,75.5836
2023-04-22T00:11:11.101Z,75.6161
2023-04-22T00:12:12.343Z,75.6178
2023-04-22T00:13:13.612Z,75.5781
2023-04-22T00:14:14.839Z,75.4917
2023-04-22T00:15:16.150Z,75.3403
2023-04-22T00:16:17.509Z,75.1593
2023-04-22T00:17:18.832Z,75.0132
2023-04-22T00:18:20.038Z,74.9670
2023-04-22T00:19:21.289Z,75.0284
2023-04-22T00:20:22.533Z,75.2266
2023-04-22T00:21:23.773Z,75.4524
2023-04-22T00:22:25.049Z,75.7177
2023-04-22T00:23:26.287Z,76.0462
2023-04-22T00:24:27.481Z,76.2977
2023-04-22T00:25:28.773Z,76.4932
2023-04-22T00:26:29.978Z,76.6116
2023-04-22T00:27:31.269Z,76.7582
2023-04-22T00:28:32.485Z,76.7527
2023-04-22T00:29:33.738Z,76.6199
2023-04-22T00:30:35.000Z,76.4295
2023-04-22T00:31:36.375Z,76.2619
2023-04-22T00:32:37.693Z,76.2379
2023-04-22T00:33:38.908Z,76.3540
2023-04-22T00:34:40.257Z,76.4841
2023-04-22T00:35:41.470Z,76.6530
2023-04-22T00:36:42.690Z,76.7676
2023-04-22T00:37:43.888Z,76.8785
2023-04-22T00:38:45.313Z,76.9826
2023-04-22T00:39:46.610Z,77.0904
2023-04-22T00:40:47.849Z,77.1719
2023-04-22T00:41:49.079Z,77.2360
2023-04-22T00:42:50.317Z,77.3553
2023-04-22T00:43:51.547Z,77.5035
2023-04-22T00:44:52.787Z,77.6363
2023-04-22T00:45:54.058Z,77.7236
2023-04-22T00:46:55.369Z,77.7695
2023-04-22T00:47:56.688Z,77.7799
2023-04-22T00:48:57.900Z,77.7716
2023-04-22T00:49:59.129Z,77.7565
2023-04-22T00:51:00.412Z,77.7318
2023-04-22T00:52:01.725Z,77.6928
2023-04-22T00:53:02.948Z,77.5980
2023-04-22T00:54:04.143Z,77.4326
2023-04-22T00:55:05.381Z,77.2048
2023-04-22T00:56:06.889Z,76.9575
2023-04-22T00:57:08.138Z,76.7568
2023-04-22T00:58:09.376Z,76.6575
2023-04-22T00:59:10.596Z,76.6715
2023-04-22T01:00:11.855Z,76.6674
2023-04-22T01:01:13.122Z,76.6162
2023-04-22T01:02:14.523Z,76.5379
2023-04-22T01:03:15.956Z,76.4201
2023-04-22T01:04:17.421Z,76.2972
2023-04-22T01:05:18.755Z,76.1629
2023-04-22T01:06:19.989Z,76.0342
2023-04-22T01:07:21.237Z,75.9849
2023-04-22T01:08:22.451Z,75.9934
2023-04-22T01:09:23.705Z,76.0113
2023-04-22T01:10:24.953Z,75.9772
2023-04-22T01:11:26.212Z,75.8457
2023-04-22T01:12:27.448Z,75.6428
2023-04-22T01:13:28.772Z,75.5281
2023-04-22T01:14:30.028Z,75.4805
2023-04-22T01:15:31.508Z,75.4832
2023-04-22T01:16:32.835Z,75.6232
2023-04-22T01:17:34.135Z,75.8581
2023-04-22T01:18:35.375Z,76.0212
2023-04-22T01:19:36.828Z,76.1268
2023-04-22T01:20:38.203Z,76.1632
2023-04-22T01:21:39.417Z,76.2108
2023-04-22T01:22:40.650Z,76.2184
2023-04-22T01:23:41.864Z,76.2342
2023-04-22T01:24:43.104Z,76.2788
2023-04-22T01:25:44.369Z,76.3425
2023-04-22T01:26:45.591Z,76.4692
2023-04-22T01:27:47.100Z,76.6696
2023-04-22T01:28:48.364Z,76.8945
2023-04-22T01:29:49.672Z,77.1288
2023-04-22T01:30:50.936Z,77.4302
2023-04-22T01:31:52.251Z,77.6894
2023-04-22T01:32:53.549Z,77.8632
2023-04-22T01:33:54.795Z,78.1165
2023-04-22T01:34:56.059Z,78.2979
2023-04-22T01:35:57.623Z,78.4341
2023-04-22T01:36:58.910Z,78.5582
2023-04-22T01:38:00.155Z,78.6592
2023-04-22T01:39:01.392Z,78.7536
2023-04-22T01:40:02.597Z,78.8362
2023-04-22T01:41:03.860Z,78.9041
2023-04-22T01:42:05.109Z,78.8965
2023-04-22T01:43:06.325Z,78.8597
2023-04-22T01:44:07.531Z,78.7788
2023-04-22T01:45:08.754Z,78.7126
2023-04-22T01:46:10.077Z,78.6615
2023-04-22T01:47:11.297Z,78.6653
2023-04-22T01:48:12.599Z,78.6987
2023-04-22T01:49:13.835Z,78.7529
2023-04-22T01:50:15.083Z,78.8513
2023-04-22T01:51:16.284Z,78.9023
2023-04-22T01:52:17.521Z,78.9473
2023-04-22T01:53:18.750Z,78.9692
2023-04-22T01:54:19.999Z,78.9747
2023-04-22T01:55:21.228Z,78.9054
2023-04-22T01:56:22.423Z,78.7570
2023-04-22T01:57:23.658Z,78.5789
2023-04-22T01:58:24.860Z,78.4193
2023-04-22T01:59:26.489Z,78.2880
2023-04-22T02:00:27.752Z,78.1340
2023-04-22T02:01:28.965Z,77.9830
2023-04-22T02:02:30.244Z,77.9301
2023-04-22T02:03:31.543Z,77.9423
2023-04-22T02:04:32.952Z,77.9986
2023-04-22T02:05:34.162Z,78.0719
2023-04-22T02:06:35.342Z,78.1406
2023-04-22T02:07:36.666Z,78.1767
2023-04-22T02:08:37.887Z,78.1961
2023-04-22T02:09:39.246Z,78.2163
2023-04-22T02:10:40.605Z,78.2516
2023-04-22T02:11:41.800Z,78.2965
2023-04-22T02:12:43.003Z,78.3777
2023-04-22T02:13:44.198Z,78.4137
2023-04-22T02:14:45.400Z,78.2946
2023-04-22T02:15:46.707Z,78.1479
2023-04-22T02:16:48.013Z,77.9471
2023-04-22T02:17:49.228Z,77.7273
2023-04-22T02:18:50.489Z,77.4926
2023-04-22T02:19:51.684Z,77.1887
2023-04-22T02:20:52.855Z,76.9371
2023-04-22T02:21:54.083Z,76.8286
2023-04-22T02:22:55.295Z,76.7643
2023-04-22T02:23:56.506Z,76.7870
2023-04-22T02:24:57.741Z,76.7395
2023-04-22T02:25:58.962Z,76.5800
2023-04-22T02:27:00.135Z,76.4471
2023-04-22T02:28:01.343Z,76.4571
2023-04-22T02:29:02.539Z,76.4748
2023-04-22T02:30:03.782Z,76.4346
2023-04-22T02:31:05.058Z,76.3857
2023-04-22T02:32:06.224Z,76.4088
2023-04-22T02:33:07.558Z,76.5665
2023-04-22T02:34:08.835Z,76.8341
2023-04-22T02:35:10.021Z,77.1051
2023-04-22T02:36:11.222Z,77.3195
2023-04-22T02:37:12.429Z,77.4632
2023-04-22T02:38:13.659Z,77.5060
2023-04-22T02:39:14.876Z,77.5043
2023-04-22T02:40:16.102Z,77.4638
2023-04-22T02:41:17.317Z,77.3415
2023-04-22T02:42:18.499Z,77.3709
2023-04-22T02:43:19.685Z,77.3035
2023-04-22T02:44:20.908Z,77.2980
2023-04-22T02:45:22.116Z,77.3299
2023-04-22T02:46:23.327Z,77.3750
2023-04-22T02:47:24.556Z,77.4089
2023-04-22T02:48:25.748Z,77.3600
2023-04-22T02:49:27.030Z,77.2234
2023-04-22T02:50:28.241Z,77.2503
2023-04-22T02:51:29.427Z,78.8577
2023-04-22T02:52:30.632Z,79.6571
2023-04-22T02:53:31.826Z,79.2402
2023-04-22T02:54:33.045Z,79.2690
2023-04-22T02:55:34.271Z,80.7294
2023-04-22T02:56:35.466Z,82.7807
2023-04-22T02:57:36.693Z,82.4163
2023-04-22T02:58:37.896Z,81.7354
2023-04-22T02:59:39.272Z,81.4196
2023-04-22T03:00:40.570Z,81.2392
2023-04-22T03:01:41.813Z,81.1386
2023-04-22T03:02:43.431Z,81.7439
2023-04-22T03:03:44.934Z,82.2997
2023-04-22T03:04:46.204Z,82.5300
2023-04-22T03:05:47.394Z,82.2262
2023-04-22T03:06:48.594Z,81.8839
2023-04-22T03:07:49.781Z,81.6713
2023-04-22T03:08:50.985Z,81.5081
2023-04-22T03:09:52.200Z,81.3426
2023-04-22T03:10:53.408Z,81.1994
2023-04-22T03:11:54.596Z,81.1003
2023-04-22T03:12:55.792Z,81.0131
2023-04-22T03:13:57.032Z,80.9424
2023-04-22T03:14:58.247Z,80.8913
2023-04-22T03:15:59.506Z,81.1254
2023-04-22T03:17:00.726Z,81.2926
2023-04-22T03:18:01.983Z,81.2020
2023-04-22T03:19:03.212Z,81.0756
2023-04-22T03:20:04.468Z,80.9607
2023-04-22T03:21:05.693Z,80.9249
2023-04-22T03:22:06.921Z,80.9120
2023-04-22T03:23:08.155Z,80.8914
2023-04-22T03:24:09.395Z,80.8686
2023-04-22T03:25:10.638Z,80.8101
2023-04-22T03:26:11.894Z,80.7417
2023-04-22T03:27:13.135Z,80.6562
2023-04-22T03:28:14.367Z,80.5092
2023-04-22T03:29:15.609Z,80.3183
2023-04-22T03:30:16.844Z,80.1457
2023-04-22T03:31:18.095Z,80.0261
2023-04-22T03:32:19.290Z,80.0127
2023-04-22T03:33:20.594Z,80.0292
2023-04-22T03:34:21.819Z,80.0589
2023-04-22T03:35:23.057Z,80.0923
2023-04-22T03:36:24.352Z,80.1722
2023-04-22T03:37:25.616Z,80.3133
2023-04-22T03:38:26.866Z,80.3667
2023-04-22T03:39:28.119Z,80.2933
2023-04-22T03:40:29.337Z,80.1783
2023-04-22T03:41:30.579Z,80.0067
2023-04-22T03:42:31.862Z,79.7890
2023-04-22T03:43:33.093Z,79.4660
2023-04-22T03:44:34.347Z,79.0751
2023-04-22T03:45:35.639Z,78.7279
2023-04-22T03:46:36.851Z,78.4614
2023-04-22T03:47:38.478Z,78.2981
2023-04-22T03:48:39.747Z,78.2363
2023-04-22T03:49:41.118Z,78.2752
2023-04-22T03:50:42.588Z,78.3979
2023-04-22T03:51:43.837Z,78.5135
2023-04-22T03:52:45.312Z,78.6166
2023-04-22T03:53:46.570Z,78.7457
2023-04-22T03:54:47.822Z,78.8472
2023-04-22T03:55:49.063Z,78.8460
2023-04-22T03:56:50.303Z,78.8824
2023-04-22T03:57:51.552Z,79.2980
2023-04-22T03:58:52.777Z,80.1824
2023-04-22T03:59:54.038Z,79.9359
2023-04-22T04:00:55.258Z,79.8755
2023-04-22T04:01:56.619Z,79.8957
2023-04-22T04:02:57.962Z,79.9561
2023-04-22T04:03:59.576Z,80.0031
2023-04-22T04:05:01.325Z,79.9992
2023-04-22T04:06:02.655Z,80.0174
2023-04-22T04:07:03.892Z,80.0568
2023-04-22T04:08:05.097Z,80.1121
2023-04-22T04:09:06.423Z,80.2063
2023-04-22T04:10:07.636Z,80.3313
2023-04-22T04:11:08.912Z,80.5017
2023-04-22T04:12:10.376Z,80.6682
2023-04-22T04:13:11.608Z,80.8232
2023-04-22T04:14:12.869Z,80.8991
2023-04-22T04:15:14.120Z,81.0437
2023-04-22T04:16:15.432Z,81.1387
2023-04-22T04:17:16.703Z,81.1700
2023-04-22T04:18:17.976Z,81.1942
2023-04-22T04:19:19.230Z,81.2475
2023-04-22T04:20:20.464Z,81.3238
2023-04-22T04:21:21.697Z,81.4465
2023-04-22T04:22:22.953Z,81.5296
2023-04-22T04:23:24.181Z,81.5812
2023-04-22T04:24:25.425Z,81.6118
2023-04-22T04:25:26.749Z,81.6341
2023-04-22T04:26:27.991Z,81.6510
2023-04-22T04:27:29.220Z,81.6474
2023-04-22T04:28:30.515Z,81.6268
2023-04-22T04:29:31.738Z,81.5622
2023-04-22T04:30:33.632Z,81.5238
2023-04-22T04:31:35.671Z,81.4960
2023-04-22T04:32:36.930Z,81.5218
2023-04-22T04:33:38.246Z,81.6188
2023-04-22T04:34:39.534Z,81.7079
2023-04-22T04:35:40.742Z,81.7415
2023-04-22T04:36:42.003Z,81.7548
2023-04-22T04:37:43.242Z,81.7770
2023-04-22T04:38:44.472Z,81.8025
2023-04-22T04:39:45.751Z,81.8578
2023-04-22T04:40:47.020Z,81.8741
2023-04-22T04:41:48.273Z,81.8204
2023-04-22T04:42:49.514Z,81.8041
2023-04-22T04:43:50.778Z,81.8109
2023-04-22T04:44:52.011Z,81.9070
2023-04-22T04:45:53.283Z,82.1010
2023-04-22T04:46:54.651Z,82.2156
2023-04-22T04:47:55.980Z,82.1749
2023-04-22T04:48:57.229Z,82.1712
2023-04-22T04:49:58.462Z,82.4157
2023-04-22T04:50:59.699Z,82.6194
2023-04-22T04:52:01.835Z,82.7805
2023-04-22T04:53:03.170Z,82.7880
2023-04-22T04:54:04.393Z,82.7461
2023-04-22T04:55:05.640Z,82.8856
2023-04-22T04:56:06.888Z,83.1375
2023-04-22T04:57:08.153Z,83.2525
2023-04-22T04:58:09.414Z,83.1876
2023-04-22T04:59:10.663Z,83.1540
2023-04-22T05:00:11.889Z,83.1737
2023-04-22T05:01:13.184Z,83.3028
2023-04-22T05:02:14.762Z,83.4047
2023-04-22T05:03:16.276Z,83.3547
2023-04-22T05:04:17.816Z,83.2104
2023-04-22T05:05:19.203Z,83.0827
2023-04-22T05:06:20.554Z,82.9988
2023-04-22T05:07:21.785Z,82.9984
2023-04-22T05:08:23.027Z,83.0181
2023-04-22T05:09:24.261Z,82.9475
2023-04-22T05:10:25.582Z,82.8326
2023-04-22T05:11:26.848Z,82.6981
2023-04-22T05:12:28.083Z,82.5221
2023-04-22T05:13:29.323Z,82.3002
2023-04-22T05:14:30.800Z,82.1708
2023-04-22T05:15:32.059Z,82.1369
2023-04-22T05:16:33.341Z,82.1665
2023-04-22T05:17:34.632Z,82.3312
2023-04-22T05:18:35.865Z,82.7845
2023-04-22T05:19:37.234Z,83.4588
2023-04-22T05:20:38.562Z,83.7843
2023-04-22T05:21:39.889Z,83.7383
2023-04-22T05:22:41.077Z,83.7729
2023-04-22T05:23:42.318Z,83.8479
2023-04-22T05:24:43.801Z,83.9071
2023-04-22T05:25:45.004Z,83.8817
2023-04-22T05:26:46.274Z,83.8184
2023-04-22T05:27:47.567Z,83.7257
2023-04-22T05:28:48.802Z,83.6789
2023-04-22T05:29:50.056Z,83.6196
2023-04-22T05:30:51.286Z,83.5402
2023-04-22T05:31:52.865Z,83.4779
2023-04-22T05:32:54.153Z,83.4334
2023-04-22T05:33:55.468Z,83.4277
2023-04-22T05:34:56.708Z,83.4536
2023-04-22T05:35:57.944Z,83.4572
2023-04-22T05:36:59.221Z,83.5310
2023-04-22T05:38:00.462Z,83.5708
2023-04-22T05:39:01.724Z,83.5377
2023-04-22T05:40:03.080Z,83.6718
2023-04-22T05:41:04.294Z,83.8088
2023-04-22T05:42:05.541Z,84.0055
2023-04-22T05:43:06.790Z,84.1284
2023-04-22T05:44:08.030Z,84.2246
2023-04-22T05:45:09.298Z,84.5002
2023-04-22T05:46:10.539Z,84.7041
2023-04-22T05:47:12.153Z,84.7448
2023-04-22T05:48:13.349Z,84.6979
2023-04-22T05:49:14.593Z,84.6845
2023-04-22T05:50:15.827Z,84.6435
2023-04-22T05:51:17.067Z,84.6578
2023-04-22T05:52:18.339Z,84.7016
2023-04-22T05:53:19.724Z,84.7187
2023-04-22T05:54:20.953Z,84.6812
2023-04-22T05:55:22.199Z,84.6956
2023-04-22T05:56:23.463Z,84.6892
2023-04-22T05:57:24.720Z,84.6161
2023-04-22T05:58:26.009Z,84.5635
2023-04-22T05:59:27.327Z,84.5426
2023-04-22T06:00:28.550Z,84.5084
2023-04-22T06:01:29.787Z,84.4488
2023-04-22T06:02:31.182Z,84.4300
2023-04-22T06:03:32.764Z,84.4162
2023-04-22T06:04:37.175Z,84.3925
2023-04-22T06:05:35.261Z,84.3776
2023-04-22T06:06:36.738Z,84.3347
2023-04-22T06:07:37.982Z,84.3134
2023-04-22T06:08:39.250Z,84.2807
2023-04-22T06:09:40.648Z,84.2439
2023-04-22T06:10:42.049Z,84.2217
2023-04-22T06:11:43.321Z,84.1953
2023-04-22T06:12:44.573Z,84.1673
2023-04-22T06:13:45.904Z,84.1574
2023-04-22T06:14:47.131Z,84.1379
2023-04-22T06:15:48.397Z,84.1610
2023-04-22T06:16:49.654Z,84.1584
2023-04-22T06:17:50.945Z,84.1569
2023-04-22T06:18:52.214Z,84.1534
2023-04-22T06:19:53.503Z,84.1505
2023-04-22T06:20:56.092Z,84.2027
2023-04-22T06:21:57.359Z,84.2545
2023-04-22T06:22:58.631Z,84.3596
2023-04-22T06:23:59.862Z,84.4434
2023-04-22T06:25:01.144Z,84.4894
2023-04-22T06:26:02.380Z,84.5234
2023-04-22T06:27:03.584Z,84.5254
2023-04-22T06:28:04.832Z,84.5717
2023-04-22T06:29:06.089Z,84.6738
2023-04-22T06:30:07.332Z,84.7981
2023-04-22T06:31:08.602Z,84.9074
2023-04-22T06:32:09.834Z,85.1115
2023-04-22T06:33:11.092Z,85.2435
2023-04-22T06:34:12.320Z,85.2927
2023-04-22T06:35:13.608Z,85.3829
2023-04-22T06:36:14.861Z,85.4936
2023-04-22T06:37:16.086Z,85.6666
2023-04-22T06:38:17.332Z,85.8044
2023-04-22T06:39:18.815Z,85.9974
2023-04-22T06:40:20.067Z,86.2297
2023-04-22T06:41:21.302Z,86.5105
2023-04-22T06:42:22.574Z,86.6980
2023-04-22T06:43:23.829Z,86.8912
2023-04-22T06:44:25.134Z,87.0619
2023-04-22T06:45:26.392Z,87.1878
2023-04-22T06:46:27.676Z,87.2421
2023-04-22T06:47:29.041Z,87.2277
2023-04-22T06:48:30.328Z,86.9769
2023-04-22T06:49:31.517Z,86.7610
2023-04-22T06:50:32.766Z,86.7094
2023-04-22T06:51:34.005Z,86.7928
2023-04-22T06:52:35.274Z,87.0274
2023-04-22T06:53:36.537Z,87.0942
2023-04-22T06:54:37.805Z,87.2067
2023-04-22T06:55:39.025Z,87.2902
2023-04-22T06:56:40.259Z,87.2851
2023-04-22T06:57:41.569Z,87.2597
2023-04-22T06:58:42.840Z,86.9112
2023-04-22T06:59:46.728Z,86.4221
2023-04-22T07:00:44.775Z,86.3827
2023-04-22T07:01:46.029Z,86.4409
2023-04-22T07:02:47.298Z,86.4140
2023-04-22T07:03:48.679Z,86.3406
2023-04-22T07:04:49.910Z,86.4077
2023-04-22T07:05:51.181Z,86.4677
2023-04-22T07:06:52.482Z,86.2734
2023-04-22T07:07:53.696Z,85.5577
2023-04-22T07:08:54.957Z,85.0715
2023-04-22T07:09:56.168Z,84.5353
2023-04-22T07:10:57.429Z,82.6732
2023-04-22T07:11:58.704Z,79.9320
2023-04-22T07:12:59.995Z,79.9860
2023-04-22T07:14:01.232Z,76.8650
2023-04-22T07:15:02.457Z,76.6033
2023-04-22T07:16:03.692Z,78.2772
2023-04-22T07:17:04.982Z,75.4515
2023-04-22T07:18:06.221Z,76.2482
2023-04-22T07:19:07.454Z,76.1508
2023-04-22T07:20:08.710Z,76.9747
2023-04-22T07:21:10.056Z,78.8666
2023-04-22T07:22:11.252Z,79.9338
2023-04-22T07:23:12.510Z,79.8525
2023-04-22T07:24:13.746Z,80.2494
2023-04-22T07:25:15.006Z,80.2658
2023-04-22T07:26:16.248Z,78.7229
2023-04-22T07:27:17.488Z,78.1954
2023-04-22T07:28:18.724Z,77.7517
2023-04-22T07:29:20.235Z,75.7762
2023-04-22T07:30:21.499Z,71.3427
2023-04-22T07:31:22.814Z,72.6487
2023-04-22T07:32:24.065Z,75.1431
2023-04-22T07:33:25.278Z,74.3872
2023-04-22T07:34:26.537Z,74.2848
2023-04-22T07:35:27.765Z,75.5990
2023-04-22T07:36:29.055Z,74.5313
2023-04-22T07:37:30.307Z,73.1461
2023-04-22T07:38:31.567Z,73.9163
2023-04-22T07:39:32.814Z,73.4350
2023-04-22T07:40:34.075Z,73.1461
2023-04-22T07:41:35.320Z,73.8046
2023-04-22T07:42:36.589Z,73.4815
2023-04-22T07:43:37.832Z,72.2283
2023-04-22T07:44:39.608Z,67.3849
2023-04-22T07:45:40.990Z,65.2139
2023-04-22T07:46:42.228Z,65.6013
2023-04-22T07:47:43.472Z,67.0617
2023-04-22T07:48:44.733Z,68.6709
2023-04-22T07:49:45.973Z,69.7483
2023-04-22T07:50:47.223Z,69.7591
2023-04-22T07:51:48.463Z,69.7042
2023-04-22T07:52:49.677Z,69.1227
2023-04-22T07:53:51.113Z,69.2619
2023-04-22T07:54:52.353Z,68.6903
2023-04-22T07:55:53.613Z,66.6287
2023-04-22T07:56:54.847Z,66.4192
2023-04-22T07:57:56.081Z,66.5270
2023-04-22T07:58:57.321Z,66.4586
2023-04-22T07:59:58.579Z,66.7684
2023-04-22T08:00:59.853Z,66.8578
2023-04-22T08:02:01.149Z,66.0449
2023-04-22T08:03:02.472Z,65.7942
2023-04-22T08:04:03.972Z,65.0199
2023-04-22T08:05:05.426Z,65.1238
2023-04-22T08:06:06.644Z,64.2843
2023-04-22T08:07:26.447Z,64.1451
2023-04-22T08:08:07.935Z,63.2782
2023-04-22T08:09:09.228Z,62.7824
2023-04-22T08:10:10.468Z,62.0019
2023-04-22T08:11:11.956Z,60.9589
2023-04-22T08:12:13.192Z,58.8208
2023-04-22T08:13:15.826Z,59.4692
2023-04-22T08:14:15.449Z,59.7975
2023-04-22T08:15:16.699Z,59.4557
2023-04-22T08:16:18.228Z,59.5344
2023-04-22T08:17:19.425Z,59.5139
2023-04-22T08:18:20.660Z,59.4680
2023-04-22T08:19:21.922Z,58.5538
2023-04-22T08:20:23.189Z,58.1683
2023-04-22T08:21:24.445Z,57.8910
2023-04-22T08:22:25.711Z,57.3760
2023-04-22T08:23:26.946Z,57.0172
2023-04-22T08:24:28.215Z,55.4076
2023-04-22T08:25:29.490Z,53.5405
2023-04-22T08:26:30.759Z,52.4512
2023-04-22T08:27:32.011Z,52.1963
2023-04-22T08:28:33.282Z,52.1335
2023-04-22T08:29:34.547Z,53.1593
2023-04-22T08:30:35.795Z,53.6556
2023-04-22T08:31:37.319Z,53.3587
2023-04-22T08:32:38.585Z,53.2227
2023-04-22T08:33:39.859Z,53.2980
2023-04-22T08:34:41.611Z,52.9102
2023-04-22T08:35:42.850Z,52.7903
2023-04-22T08:36:44.151Z,52.3766
2023-04-22T08:37:45.408Z,51.3480
2023-04-22T08:38:48.299Z,51.7312
2023-04-22T08:39:47.654Z,51.2023
2023-04-22T08:40:48.913Z,51.1004
2023-04-22T08:41:50.263Z,50.1477
2023-04-22T08:42:51.484Z,49.9653
2023-04-22T08:43:52.759Z,48.7834
2023-04-22T08:44:54.012Z,46.1104
2023-04-22T08:45:55.253Z,46.3234
2023-04-22T08:46:56.671Z,46.7240
2023-04-22T08:47:58.059Z,47.3540
2023-04-22T08:48:59.306Z,47.0488
2023-04-22T08:50:00.566Z,46.5564
2023-04-22T08:51:01.834Z,44.8213
2023-04-22T08:52:03.086Z,45.0104
2023-04-22T08:53:04.357Z,45.8622
2023-04-22T08:54:05.641Z,46.5771
2023-04-22T08:55:06.872Z,46.7674
2023-04-22T08:56:08.349Z,46.6769
2023-04-22T08:57:09.643Z,46.9704
2023-04-22T08:58:11.608Z,46.5379
2023-04-22T08:59:12.854Z,46.2071
2023-04-22T09:00:14.151Z,45.8886
2023-04-22T09:01:15.407Z,45.8285
2023-04-22T09:02:16.656Z,45.5003
2023-04-22T09:03:17.982Z,45.6279
2023-04-22T09:04:19.334Z,45.7938
2023-04-22T09:05:20.609Z,45.5192
2023-04-22T09:06:21.858Z,45.1486
2023-04-22T09:07:23.104Z,43.8729
2023-04-22T09:08:24.385Z,43.8396
2023-04-22T09:09:25.611Z,42.7475
2023-04-22T09:10:26.845Z,42.5094
2023-04-22T09:11:28.096Z,42.4743
2023-04-22T09:12:29.371Z,42.1314
2023-04-22T09:13:30.648Z,41.8036
2023-04-22T09:14:31.850Z,42.1561
2023-04-22T09:15:33.124Z,42.6066
2023-04-22T09:16:34.518Z,42.6176
2023-04-22T09:17:35.841Z,42.2590
2023-04-22T09:18:37.078Z,42.1012
2023-04-22T09:19:38.510Z,42.3683
2023-04-22T09:20:39.875Z,42.0703
2023-04-22T09:21:41.113Z,42.0596
2023-04-22T09:22:42.366Z,42.1253
2023-04-22T09:23:43.621Z,41.2681
2023-04-22T09:24:44.906Z,40.4280
2023-04-22T09:25:46.154Z,40.5272
2023-04-22T09:26:47.406Z,40.6186
2023-04-22T09:27:49.646Z,40.8011
2023-04-22T09:28:51.156Z,41.1579
2023-04-22T09:29:52.401Z,40.0986
2023-04-22T09:30:53.651Z,38.8860
2023-04-22T09:31:55.008Z,38.2945
2023-04-22T09:32:56.336Z,38.1010
2023-04-22T09:33:57.705Z,37.7371
2023-04-22T09:34:58.949Z,37.4594
2023-04-22T09:36:00.554Z,36.9572
2023-04-22T09:37:01.807Z,36.9265
2023-04-22T09:38:03.095Z,37.0478
2023-04-22T09:39:04.356Z,36.8681
2023-04-22T09:40:05.578Z,37.3722
2023-04-22T09:41:06.896Z,37.7688
2023-04-22T09:42:08.131Z,37.8146
2023-04-22T09:43:09.422Z,37.6894
2023-04-22T09:44:10.705Z,37.4878
2023-04-22T09:45:11.967Z,37.6502
2023-04-22T09:46:13.274Z,37.1847
2023-04-22T09:47:14.468Z,37.1419
2023-04-22T09:48:15.745Z,37.2668
2023-04-22T09:49:17.405Z,36.6779
2023-04-22T09:50:18.776Z,35.8661
2023-04-22T09:51:20.099Z,35.7555
2023-04-22T09:52:21.373Z,35.6229
2023-04-22T09:53:22.665Z,35.8371
2023-04-22T09:54:23.940Z,36.0891
2023-04-22T09:55:25.221Z,36.2708
2023-04-22T09:56:26.535Z,36.1329
2023-04-22T09:57:27.822Z,36.0969
2023-04-22T09:58:29.098Z,35.9562
2023-04-22T09:59:30.413Z,35.8478
2023-04-22T10:00:31.766Z,35.9444
2023-04-22T10:01:33.099Z,36.2930
2023-04-22T10:02:34.440Z,35.9785
2023-04-22T10:03:35.765Z,35.4653
2023-04-22T10:04:37.027Z,35.5091
2023-04-22T10:05:38.325Z,34.8226
2023-04-22T10:06:39.613Z,34.0497
2023-04-22T10:07:40.917Z,33.4575
2023-04-22T10:08:42.229Z,33.5075
2023-04-22T10:09:43.691Z,33.5075
2023-04-22T10:10:45.030Z,33.8937
2023-04-22T10:11:46.364Z,33.7365
2023-04-22T10:12:47.658Z,33.4608
2023-04-22T10:13:48.946Z,33.2978
2023-04-22T10:14:54.094Z,33.0533
2023-04-22T10:15:55.394Z,33.0056
2023-04-22T10:16:56.824Z,32.4486
2023-04-22T10:17:58.160Z,32.5613
2023-04-22T10:18:59.410Z,32.8347
2023-04-22T10:20:00.692Z,32.8524
2023-04-22T10:21:03.586Z,32.7906
2023-04-22T10:22:04.894Z,32.9200
2023-04-22T10:23:06.248Z,33.4884
2023-04-22T10:24:07.519Z,34.0912
2023-04-22T10:25:08.795Z,34.0848
2023-04-22T10:26:10.064Z,34.4446
2023-04-22T10:27:11.392Z,34.4635
2023-04-22T10:28:12.702Z,34.2515
2023-04-22T10:29:14.080Z,34.6532
2023-04-22T10:30:15.374Z,34.7888
2023-04-22T10:31:16.666Z,33.3577
2023-04-22T10:32:17.970Z,32.9479
2023-04-22T10:33:19.242Z,33.0609
2023-04-22T10:34:20.514Z,33.0042
2023-04-22T10:35:21.862Z,33.1618
2023-04-22T10:36:23.141Z,33.5388
2023-04-22T10:37:24.442Z,33.7031
2023-04-22T10:38:25.721Z,33.9562
2023-04-22T10:39:27.063Z,34.2587
2023-04-22T10:40:28.388Z,34.1023
2023-04-22T10:42:32.984Z,33.5699
2023-04-22T10:42:32.984Z,33.2968
2023-04-22T10:43:34.314Z,33.7128
2023-04-22T10:44:35.606Z,33.6889
2023-04-22T10:45:36.947Z,33.3868
2023-04-22T10:46:38.415Z,33.8588
2023-04-22T10:47:39.819Z,34.0356
2023-04-22T10:48:41.100Z,33.5696
2023-04-22T10:49:42.398Z,33.8622
2023-04-22T10:50:43.692Z,34.3057
2023-04-22T10:51:44.958Z,34.7770
2023-04-22T10:52:46.242Z,35.0305
2023-04-22T10:53:47.535Z,35.0093
2023-04-22T10:54:48.831Z,35.0324
2023-04-22T10:55:50.151Z,34.8474
2023-04-22T10:56:57.648Z,34.4989
2023-04-22T10:57:51.494Z,34.3739
2023-04-22T10:58:52.787Z,34.3371
2023-04-22T10:59:54.080Z,34.4638
2023-04-22T11:00:55.358Z,33.9678
2023-04-22T11:01:56.703Z,33.4823
2023-04-22T11:02:58.153Z,33.7335
2023-04-22T11:03:59.549Z,33.2812
2023-04-22T11:05:00.817Z,33.5959
2023-04-22T11:06:02.099Z,33.8245
2023-04-22T11:07:03.396Z,33.6762
2023-04-22T11:08:04.730Z,33.0576
2023-04-22T11:09:06.020Z,32.6369
2023-04-22T11:10:07.316Z,32.7236
2023-04-22T11:11:08.607Z,33.1898
2023-04-22T11:12:09.898Z,33.4238
2023-04-22T11:13:11.176Z,33.4976
2023-04-22T11:14:12.541Z,33.4423
2023-04-22T11:15:13.844Z,33.6137
2023-04-22T11:16:15.139Z,33.4704
2023-04-22T11:17:16.402Z,33.0365
2023-04-22T11:18:17.702Z,32.0662
2023-04-22T11:19:18.995Z,31.8614
2023-04-22T11:20:20.328Z,31.8837
2023-04-22T11:21:21.651Z,31.8164
2023-04-22T11:22:22.937Z,31.2278
2023-04-22T11:23:24.271Z,30.1317
2023-04-22T11:24:25.599Z,30.2340
2023-04-22T11:25:26.937Z,30.5818
2023-04-22T11:26:28.175Z,30.6485
2023-04-22T11:27:29.452Z,29.9591
2023-04-22T11:28:30.765Z,29.5017
2023-04-22T11:29:32.056Z,29.4185
2023-04-22T11:30:33.344Z,29.8854
2023-04-22T11:31:34.690Z,29.7969
2023-04-22T11:32:36.007Z,30.0530
2023-04-22T11:33:37.318Z,30.3865
2023-04-22T11:34:38.640Z,31.1035
2023-04-22T11:35:39.924Z,31.2311
2023-04-22T11:36:41.182Z,31.2560
2023-04-22T11:37:42.490Z,31.3197
2023-04-22T11:38:43.769Z,31.0588
2023-04-22T11:40:07.762Z,30.7011
2023-04-22T11:40:46.593Z,30.6555
2023-04-22T11:41:48.553Z,30.3684
2023-04-22T11:42:49.848Z,30.3570
2023-04-22T11:43:51.289Z,30.4481
2023-04-22T11:44:52.591Z,30.4030
2023-04-22T11:45:54.068Z,30.2143
2023-04-22T11:46:55.315Z,29.6647
2023-04-22T11:47:56.994Z,29.6320
2023-04-22T11:48:58.284Z,29.8537
2023-04-22T11:49:59.621Z,29.7466
2023-04-22T11:51:00.907Z,30.3649
2023-04-22T11:52:02.211Z,31.1839
2023-04-22T11:53:03.493Z,31.2357
2023-04-22T11:54:04.759Z,30.5201
2023-04-22T11:55:06.008Z,30.8128
2023-04-22T11:56:07.304Z,31.1088
2023-04-22T11:57:08.622Z,31.3636
2023-04-22T11:58:09.901Z,30.4997
2023-04-22T11:59:11.149Z,30.1717
2023-04-22T12:00:12.455Z,30.1208
2023-04-22T12:01:13.719Z,30.1305
2023-04-22T12:02:15.064Z,29.8730
2023-04-22T12:03:16.601Z,29.8529
2023-04-22T12:04:18.012Z,29.7136
2023-04-22T12:05:19.378Z,29.0541
2023-04-22T12:06:20.624Z,29.2428
2023-04-22T12:07:21.927Z,29.5779
2023-04-22T12:08:23.198Z,29.6167
2023-04-22T12:09:24.507Z,29.4931
2023-04-22T12:10:25.812Z,29.4152
2023-04-22T12:11:27.080Z,29.5583
2023-04-22T12:12:28.339Z,29.7758
2023-04-22T12:13:29.930Z,30.6063
2023-04-22T12:14:31.218Z,30.7910
2023-04-22T12:15:32.528Z,30.5977
2023-04-22T12:16:33.825Z,30.8268
2023-04-22T12:17:35.142Z,31.2946
2023-04-22T12:18:36.380Z,31.5868
2023-04-22T12:19:37.856Z,31.7908
2023-04-22T12:20:39.359Z,32.1129
2023-04-22T12:21:40.626Z,32.0889